sensor_id;sensor_type;location;lat;lon;timestamp;P1;durP1;ratioP1;P2;durP2;ratioP2
25279;SDS011;13225;47.804;12.116;2023-02-19T00:01:43;3.08;;;1.63;;
25279;SDS011;13225;47.804;12.116;2023-02-19T00:06:43;2.83;;;1.55;;
25279;SDS011;13225;47.804;12.116;2023-02-19T00:09:10;4.18;;;1.50;;
25279;SDS011;13225;47.804;12.116;2023-02-19T00:11:37;2.83;;;1.58;;
25279;SDS011;13225;47.804;12.116;2023-02-19T00:14:03;1.60;;;1.50;;
25279;SDS011;13225;47.804;12.116;2023-02-19T00:16:31;1.38;;;1.27;;
25279;SDS011;13225;47.804;12.116;2023-02-19T00:18:58;2.40;;;1.60;;
25279;SDS011;13225;47.804;12.116;2023-02-19T00:21:25;1.65;;;1.42;;
25279;SDS011;13225;47.804;12.116;2023-02-19T00:23:52;2.25;;;1.70;;
25279;SDS011;13225;47.804;12.116;2023-02-19T00:26:20;2.10;;;1.60;;
25279;SDS011;13225;47.804;12.116;2023-02-19T00:28:47;1.60;;;1.50;;
25279;SDS011;13225;47.804;12.116;2023-02-19T00:33:41;1.67;;;1.48;;
25279;SDS011;13225;47.804;12.116;2023-02-19T00:36:07;4.47;;;1.75;;
25279;SDS011;13225;47.804;12.116;2023-02-19T00:38:36;2.33;;;1.30;;
25279;SDS011;13225;47.804;12.116;2023-02-19T00:41:03;1.80;;;1.40;;
25279;SDS011;13225;47.804;12.116;2023-02-19T00:43:43;1.73;;;1.40;;
25279;SDS011;13225;47.804;12.116;2023-02-19T00:46:14;1.92;;;1.48;;
25279;SDS011;13225;47.804;12.116;2023-02-19T00:48:40;2.08;;;1.40;;
25279;SDS011;13225;47.804;12.116;2023-02-19T00:51:05;2.00;;;1.45;;
25279;SDS011;13225;47.804;12.116;2023-02-19T00:53:31;3.22;;;1.52;;
25279;SDS011;13225;47.804;12.116;2023-02-19T00:55:57;2.38;;;1.50;;
25279;SDS011;13225;47.804;12.116;2023-02-19T00:58:22;2.25;;;1.80;;
25279;SDS011;13225;47.804;12.116;2023-02-19T01:00:48;2.00;;;1.30;;
25279;SDS011;13225;47.804;12.116;2023-02-19T01:03:13;1.50;;;1.40;;
25279;SDS011;13225;47.804;12.116;2023-02-19T01:05:39;3.13;;;1.52;;
25279;SDS011;13225;47.804;12.116;2023-02-19T01:08:04;1.38;;;1.27;;
25279;SDS011;13225;47.804;12.116;2023-02-19T01:10:30;2.30;;;1.50;;
25279;SDS011;13225;47.804;12.116;2023-02-19T01:12:56;3.75;;;1.60;;
25279;SDS011;13225;47.804;12.116;2023-02-19T01:15:21;1.80;;;1.52;;
25279;SDS011;13225;47.804;12.116;2023-02-19T01:17:47;2.95;;;1.55;;
25279;SDS011;13225;47.804;12.116;2023-02-19T01:20:12;2.75;;;1.42;;
25279;SDS011;13225;47.804;12.116;2023-02-19T01:22:38;2.00;;;1.52;;
25279;SDS011;13225;47.804;12.116;2023-02-19T01:25:04;2.00;;;1.70;;
25279;SDS011;13225;47.804;12.116;2023-02-19T01:27:29;2.25;;;1.60;;
25279;SDS011;13225;47.804;12.116;2023-02-19T01:29:55;1.45;;;1.35;;
25279;SDS011;13225;47.804;12.116;2023-02-19T01:32:21;2.72;;;1.60;;
25279;SDS011;13225;47.804;12.116;2023-02-19T01:34:46;2.17;;;1.52;;
25279;SDS011;13225;47.804;12.116;2023-02-19T01:37:12;1.73;;;1.42;;
25279;SDS011;13225;47.804;12.116;2023-02-19T01:39:37;1.90;;;1.67;;
25279;SDS011;13225;47.804;12.116;2023-02-19T01:42:03;2.85;;;1.50;;
25279;SDS011;13225;47.804;12.116;2023-02-19T01:47:01;3.30;;;1.92;;
25279;SDS011;13225;47.804;12.116;2023-02-19T01:49:27;3.15;;;1.75;;
25279;SDS011;13225;47.804;12.116;2023-02-19T01:51:57;1.52;;;1.42;;
25279;SDS011;13225;47.804;12.116;2023-02-19T01:54:34;2.03;;;1.75;;
25279;SDS011;13225;47.804;12.116;2023-02-19T01:57:03;2.72;;;1.88;;
25279;SDS011;13225;47.804;12.116;2023-02-19T01:59:34;2.03;;;1.57;;
25279;SDS011;13225;47.804;12.116;2023-02-19T02:01:59;2.95;;;1.55;;
25279;SDS011;13225;47.804;12.116;2023-02-19T02:04:25;1.70;;;1.60;;
25279;SDS011;13225;47.804;12.116;2023-02-19T02:06:54;3.85;;;1.70;;
25279;SDS011;13225;47.804;12.116;2023-02-19T02:09:22;2.38;;;1.70;;
25279;SDS011;13225;47.804;12.116;2023-02-19T02:12:12;1.85;;;1.38;;
25279;SDS011;13225;47.804;12.116;2023-02-19T02:14:39;2.15;;;1.63;;
25279;SDS011;13225;47.804;12.116;2023-02-19T02:33:05;1.93;;;1.70;;
25279;SDS011;13225;47.804;12.116;2023-02-19T02:38:31;2.58;;;1.70;;
25279;SDS011;13225;47.804;12.116;2023-02-19T02:41:03;2.10;;;1.70;;
25279;SDS011;13225;47.804;12.116;2023-02-19T02:43:30;1.70;;;1.45;;
25279;SDS011;13225;47.804;12.116;2023-02-19T02:45:56;2.40;;;1.70;;
25279;SDS011;13225;47.804;12.116;2023-02-19T02:51:21;2.15;;;1.75;;
25279;SDS011;13225;47.804;12.116;2023-02-19T02:54:00;3.13;;;1.70;;
25279;SDS011;13225;47.804;12.116;2023-02-19T02:56:49;2.55;;;1.55;;
25279;SDS011;13225;47.804;12.116;2023-02-19T02:59:20;2.70;;;1.90;;
25279;SDS011;13225;47.804;12.116;2023-02-19T03:01:48;1.60;;;1.50;;
25279;SDS011;13225;47.804;12.116;2023-02-19T03:07:34;2.42;;;1.65;;
25279;SDS011;13225;47.804;12.116;2023-02-19T03:10:05;2.20;;;1.70;;
25279;SDS011;13225;47.804;12.116;2023-02-19T03:12:34;2.05;;;1.80;;
25279;SDS011;13225;47.804;12.116;2023-02-19T03:15:22;2.05;;;1.77;;
25279;SDS011;13225;47.804;12.116;2023-02-19T03:18:10;2.85;;;1.88;;
25279;SDS011;13225;47.804;12.116;2023-02-19T03:20:57;2.72;;;1.85;;
25279;SDS011;13225;47.804;12.116;2023-02-19T03:23:24;1.55;;;1.45;;
25279;SDS011;13225;47.804;12.116;2023-02-19T03:26:13;2.92;;;1.90;;
25279;SDS011;13225;47.804;12.116;2023-02-19T03:28:40;1.73;;;1.52;;
25279;SDS011;13225;47.804;12.116;2023-02-19T03:31:27;1.75;;;1.65;;
25279;SDS011;13225;47.804;12.116;2023-02-19T03:33:56;2.53;;;1.90;;
25279;SDS011;13225;47.804;12.116;2023-02-19T03:36:26;2.00;;;1.80;;
25279;SDS011;13225;47.804;12.116;2023-02-19T03:39:05;2.22;;;1.83;;
25279;SDS011;13225;47.804;12.116;2023-02-19T03:41:34;2.03;;;1.73;;
25279;SDS011;13225;47.804;12.116;2023-02-19T03:47:38;2.97;;;1.70;;
25279;SDS011;13225;47.804;12.116;2023-02-19T03:52:41;4.15;;;1.90;;
25279;SDS011;13225;47.804;12.116;2023-02-19T03:55:31;3.60;;;2.10;;
25279;SDS011;13225;47.804;12.116;2023-02-19T03:58:08;4.13;;;1.83;;
25279;SDS011;13225;47.804;12.116;2023-02-19T04:00:52;2.63;;;1.85;;
25279;SDS011;13225;47.804;12.116;2023-02-19T04:03:28;3.50;;;2.10;;
25279;SDS011;13225;47.804;12.116;2023-02-19T04:06:01;2.90;;;2.10;;
25279;SDS011;13225;47.804;12.116;2023-02-19T04:08:38;2.95;;;2.13;;
25279;SDS011;13225;47.804;12.116;2023-02-19T04:11:07;2.38;;;1.85;;
25279;SDS011;13225;47.804;12.116;2023-02-19T04:14:17;3.10;;;2.10;;
25279;SDS011;13225;47.804;12.116;2023-02-19T04:16:23;2.05;;;1.80;;
25279;SDS011;13225;47.804;12.116;2023-02-19T04:18:53;2.25;;;2.05;;
25279;SDS011;13225;47.804;12.116;2023-02-19T04:21:24;3.83;;;1.90;;
25279;SDS011;13225;47.804;12.116;2023-02-19T04:23:52;1.95;;;1.67;;
25279;SDS011;13225;47.804;12.116;2023-02-19T04:26:20;1.67;;;1.50;;
25279;SDS011;13225;47.804;12.116;2023-02-19T04:28:46;2.75;;;1.65;;
25279;SDS011;13225;47.804;12.116;2023-02-19T04:31:12;2.20;;;1.83;;
25279;SDS011;13225;47.804;12.116;2023-02-19T04:33:38;3.13;;;2.00;;
25279;SDS011;13225;47.804;12.116;2023-02-19T04:36:03;2.90;;;1.70;;
25279;SDS011;13225;47.804;12.116;2023-02-19T04:38:29;2.70;;;1.70;;
25279;SDS011;13225;47.804;12.116;2023-02-19T04:40:55;1.75;;;1.63;;
25279;SDS011;13225;47.804;12.116;2023-02-19T04:43:21;2.53;;;2.25;;
25279;SDS011;13225;47.804;12.116;2023-02-19T04:45:46;2.70;;;1.70;;
25279;SDS011;13225;47.804;12.116;2023-02-19T04:48:12;2.80;;;2.08;;
25279;SDS011;13225;47.804;12.116;2023-02-19T04:50:37;2.65;;;1.92;;
25279;SDS011;13225;47.804;12.116;2023-02-19T04:53:04;2.45;;;1.70;;
25279;SDS011;13225;47.804;12.116;2023-02-19T04:55:30;2.72;;;2.33;;
25279;SDS011;13225;47.804;12.116;2023-02-19T04:57:55;4.00;;;1.80;;
25279;SDS011;13225;47.804;12.116;2023-02-19T05:00:21;2.88;;;1.90;;
25279;SDS011;13225;47.804;12.116;2023-02-19T05:02:46;3.00;;;1.98;;
25279;SDS011;13225;47.804;12.116;2023-02-19T05:05:12;2.50;;;1.88;;
25279;SDS011;13225;47.804;12.116;2023-02-19T05:07:38;2.47;;;2.08;;
25279;SDS011;13225;47.804;12.116;2023-02-19T05:10:03;2.92;;;2.10;;
25279;SDS011;13225;47.804;12.116;2023-02-19T05:12:29;3.88;;;2.03;;
25279;SDS011;13225;47.804;12.116;2023-02-19T05:14:55;4.53;;;2.15;;
25279;SDS011;13225;47.804;12.116;2023-02-19T05:17:20;3.47;;;2.10;;
25279;SDS011;13225;47.804;12.116;2023-02-19T05:19:46;3.20;;;1.90;;
25279;SDS011;13225;47.804;12.116;2023-02-19T05:22:12;3.25;;;2.03;;
25279;SDS011;13225;47.804;12.116;2023-02-19T05:24:37;2.45;;;2.25;;
25279;SDS011;13225;47.804;12.116;2023-02-19T05:27:03;4.38;;;2.28;;
25279;SDS011;13225;47.804;12.116;2023-02-19T05:29:31;4.25;;;2.47;;
25279;SDS011;13225;47.804;12.116;2023-02-19T05:31:57;3.88;;;2.50;;
25279;SDS011;13225;47.804;12.116;2023-02-19T05:34:23;3.78;;;2.10;;
25279;SDS011;13225;47.804;12.116;2023-02-19T05:36:48;4.43;;;2.60;;
25279;SDS011;13225;47.804;12.116;2023-02-19T05:39:14;3.15;;;2.28;;
25279;SDS011;13225;47.804;12.116;2023-02-19T05:41:39;3.03;;;1.98;;
25279;SDS011;13225;47.804;12.116;2023-02-19T05:44:05;2.50;;;2.13;;
25279;SDS011;13225;47.804;12.116;2023-02-19T05:46:31;2.17;;;1.90;;
25279;SDS011;13225;47.804;12.116;2023-02-19T05:48:58;4.15;;;2.30;;
25279;SDS011;13225;47.804;12.116;2023-02-19T05:51:24;4.32;;;1.90;;
25279;SDS011;13225;47.804;12.116;2023-02-19T05:53:51;3.08;;;1.80;;
25279;SDS011;13225;47.804;12.116;2023-02-19T05:59:00;3.25;;;1.95;;
25279;SDS011;13225;47.804;12.116;2023-02-19T06:01:28;2.42;;;1.80;;
25279;SDS011;13225;47.804;12.116;2023-02-19T06:03:54;4.18;;;2.40;;
25279;SDS011;13225;47.804;12.116;2023-02-19T06:06:21;4.53;;;2.38;;
25279;SDS011;13225;47.804;12.116;2023-02-19T06:08:47;4.30;;;2.03;;
25279;SDS011;13225;47.804;12.116;2023-02-19T06:11:16;4.32;;;2.22;;
25279;SDS011;13225;47.804;12.116;2023-02-19T06:13:43;6.30;;;2.40;;
25279;SDS011;13225;47.804;12.116;2023-02-19T06:16:09;3.20;;;2.15;;
25279;SDS011;13225;47.804;12.116;2023-02-19T06:18:35;4.60;;;2.35;;
25279;SDS011;13225;47.804;12.116;2023-02-19T06:21:01;3.38;;;2.20;;
25279;SDS011;13225;47.804;12.116;2023-02-19T06:23:29;2.42;;;2.10;;
25279;SDS011;13225;47.804;12.116;2023-02-19T06:26:03;5.80;;;2.63;;
25279;SDS011;13225;47.804;12.116;2023-02-19T06:28:40;2.97;;;2.20;;
25279;SDS011;13225;47.804;12.116;2023-02-19T06:31:06;3.45;;;2.50;;
25279;SDS011;13225;47.804;12.116;2023-02-19T06:33:33;3.97;;;2.67;;
25279;SDS011;13225;47.804;12.116;2023-02-19T06:36:00;3.45;;;2.50;;
25279;SDS011;13225;47.804;12.116;2023-02-19T06:38:27;4.00;;;2.70;;
25279;SDS011;13225;47.804;12.116;2023-02-19T06:40:53;3.05;;;2.50;;
25279;SDS011;13225;47.804;12.116;2023-02-19T06:43:20;4.28;;;2.17;;
25279;SDS011;13225;47.804;12.116;2023-02-19T06:45:46;2.78;;;1.98;;
25279;SDS011;13225;47.804;12.116;2023-02-19T06:48:11;2.35;;;2.10;;
25279;SDS011;13225;47.804;12.116;2023-02-19T06:50:37;4.13;;;2.00;;
25279;SDS011;13225;47.804;12.116;2023-02-19T06:53:03;4.90;;;2.40;;
25279;SDS011;13225;47.804;12.116;2023-02-19T06:55:28;2.58;;;1.88;;
25279;SDS011;13225;47.804;12.116;2023-02-19T06:57:54;2.25;;;1.85;;
25279;SDS011;13225;47.804;12.116;2023-02-19T07:00:20;2.80;;;2.00;;
25279;SDS011;13225;47.804;12.116;2023-02-19T07:02:45;3.17;;;1.90;;
25279;SDS011;13225;47.804;12.116;2023-02-19T07:05:11;2.05;;;1.70;;
25279;SDS011;13225;47.804;12.116;2023-02-19T07:07:36;2.70;;;1.83;;
25279;SDS011;13225;47.804;12.116;2023-02-19T07:10:02;1.95;;;1.58;;
25279;SDS011;13225;47.804;12.116;2023-02-19T07:12:28;2.55;;;1.45;;
25279;SDS011;13225;47.804;12.116;2023-02-19T07:14:54;2.30;;;1.70;;
25279;SDS011;13225;47.804;12.116;2023-02-19T07:17:19;1.30;;;1.20;;
25279;SDS011;13225;47.804;12.116;2023-02-19T07:19:45;2.20;;;1.45;;
25279;SDS011;13225;47.804;12.116;2023-02-19T07:22:10;2.40;;;1.25;;
25279;SDS011;13225;47.804;12.116;2023-02-19T07:24:36;1.70;;;1.40;;
25279;SDS011;13225;47.804;12.116;2023-02-19T07:27:01;1.42;;;1.30;;
25279;SDS011;13225;47.804;12.116;2023-02-19T07:29:27;1.13;;;0.98;;
25279;SDS011;13225;47.804;12.116;2023-02-19T07:31:53;1.30;;;1.17;;
25279;SDS011;13225;47.804;12.116;2023-02-19T07:34:18;1.60;;;1.27;;
25279;SDS011;13225;47.804;12.116;2023-02-19T07:36:44;1.73;;;1.00;;
25279;SDS011;13225;47.804;12.116;2023-02-19T07:39:10;1.48;;;1.02;;
25279;SDS011;13225;47.804;12.116;2023-02-19T07:41:37;1.50;;;1.10;;
25279;SDS011;13225;47.804;12.116;2023-02-19T07:44:03;1.40;;;1.00;;
25279;SDS011;13225;47.804;12.116;2023-02-19T07:46:28;2.80;;;1.15;;
25279;SDS011;13225;47.804;12.116;2023-02-19T07:48:54;1.50;;;1.00;;
25279;SDS011;13225;47.804;12.116;2023-02-19T07:51:20;1.90;;;1.00;;
25279;SDS011;13225;47.804;12.116;2023-02-19T07:53:46;1.77;;;1.02;;
25279;SDS011;13225;47.804;12.116;2023-02-19T07:56:14;1.38;;;0.80;;
25279;SDS011;13225;47.804;12.116;2023-02-19T07:58:40;1.23;;;0.90;;
25279;SDS011;13225;47.804;12.116;2023-02-19T08:01:07;1.75;;;0.90;;
25279;SDS011;13225;47.804;12.116;2023-02-19T08:03:35;1.63;;;1.10;;
25279;SDS011;13225;47.804;12.116;2023-02-19T08:06:01;1.13;;;1.02;;
25279;SDS011;13225;47.804;12.116;2023-02-19T08:08:26;2.42;;;1.20;;
25279;SDS011;13225;47.804;12.116;2023-02-19T08:10:52;3.42;;;1.10;;
25279;SDS011;13225;47.804;12.116;2023-02-19T08:13:36;1.85;;;0.85;;
25279;SDS011;13225;47.804;12.116;2023-02-19T08:18:28;1.40;;;1.10;;
25279;SDS011;13225;47.804;12.116;2023-02-19T08:20:56;1.60;;;1.25;;
25279;SDS011;13225;47.804;12.116;2023-02-19T08:23:23;3.35;;;1.10;;
25279;SDS011;13225;47.804;12.116;2023-02-19T08:25:49;1.35;;;1.17;;
25279;SDS011;13225;47.804;12.116;2023-02-19T08:28:16;2.10;;;1.40;;
25279;SDS011;13225;47.804;12.116;2023-02-19T08:30:44;2.80;;;1.20;;
25279;SDS011;13225;47.804;12.116;2023-02-19T08:33:11;1.35;;;1.20;;
25279;SDS011;13225;47.804;12.116;2023-02-19T08:35:38;1.20;;;1.05;;
25279;SDS011;13225;47.804;12.116;2023-02-19T08:38:04;1.08;;;0.98;;
25279;SDS011;13225;47.804;12.116;2023-02-19T08:40:30;1.60;;;1.17;;
25279;SDS011;13225;47.804;12.116;2023-02-19T08:43:03;1.80;;;1.10;;
25279;SDS011;13225;47.804;12.116;2023-02-19T08:45:30;1.13;;;1.02;;
25279;SDS011;13225;47.804;12.116;2023-02-19T08:47:57;1.50;;;1.08;;
25279;SDS011;13225;47.804;12.116;2023-02-19T08:50:23;1.73;;;1.17;;
25279;SDS011;13225;47.804;12.116;2023-02-19T08:52:49;1.45;;;1.20;;
25279;SDS011;13225;47.804;12.116;2023-02-19T08:55:14;1.52;;;1.17;;
25279;SDS011;13225;47.804;12.116;2023-02-19T08:57:40;2.00;;;1.10;;
25279;SDS011;13225;47.804;12.116;2023-02-19T09:00:06;0.80;;;0.80;;
25279;SDS011;13225;47.804;12.116;2023-02-19T09:02:34;1.38;;;1.20;;
25279;SDS011;13225;47.804;12.116;2023-02-19T09:05:00;2.88;;;1.10;;
25279;SDS011;13225;47.804;12.116;2023-02-19T09:07:25;2.22;;;1.20;;
25279;SDS011;13225;47.804;12.116;2023-02-19T09:09:51;1.42;;;1.20;;
25279;SDS011;13225;47.804;12.116;2023-02-19T09:12:17;1.98;;;1.10;;
25279;SDS011;13225;47.804;12.116;2023-02-19T09:14:43;1.55;;;1.20;;
25279;SDS011;13225;47.804;12.116;2023-02-19T09:17:09;1.10;;;1.00;;
25279;SDS011;13225;47.804;12.116;2023-02-19T09:19:35;1.85;;;1.20;;
25279;SDS011;13225;47.804;12.116;2023-02-19T09:22:01;2.00;;;0.95;;
25279;SDS011;13225;47.804;12.116;2023-02-19T09:24:28;1.67;;;0.88;;
25279;SDS011;13225;47.804;12.116;2023-02-19T09:26:54;1.35;;;1.10;;
25279;SDS011;13225;47.804;12.116;2023-02-19T09:29:20;2.38;;;0.98;;
25279;SDS011;13225;47.804;12.116;2023-02-19T09:31:48;1.02;;;0.98;;
25279;SDS011;13225;47.804;12.116;2023-02-19T09:34:13;2.22;;;1.20;;
25279;SDS011;13225;47.804;12.116;2023-02-19T09:36:39;1.17;;;1.00;;
25279;SDS011;13225;47.804;12.116;2023-02-19T09:39:05;2.08;;;1.15;;
25279;SDS011;13225;47.804;12.116;2023-02-19T09:44:01;1.65;;;1.38;;
25279;SDS011;13225;47.804;12.116;2023-02-19T09:49:14;0.80;;;0.77;;
25279;SDS011;13225;47.804;12.116;2023-02-19T09:51:45;1.75;;;1.30;;
25279;SDS011;13225;47.804;12.116;2023-02-19T09:54:36;0.80;;;0.60;;
25279;SDS011;13225;47.804;12.116;2023-02-19T09:57:02;1.05;;;0.90;;
25279;SDS011;13225;47.804;12.116;2023-02-19T10:00:03;0.80;;;0.65;;
25279;SDS011;13225;47.804;12.116;2023-02-19T10:02:25;0.95;;;0.50;;
25279;SDS011;13225;47.804;12.116;2023-02-19T10:04:51;0.80;;;0.80;;
25279;SDS011;13225;47.804;12.116;2023-02-19T10:07:19;1.05;;;0.70;;
25279;SDS011;13225;47.804;12.116;2023-02-19T10:12:47;0.60;;;0.43;;
25279;SDS011;13225;47.804;12.116;2023-02-19T10:15:21;0.40;;;0.40;;
25279;SDS011;13225;47.804;12.116;2023-02-19T10:17:53;1.40;;;0.68;;
25279;SDS011;13225;47.804;12.116;2023-02-19T10:20:19;0.57;;;0.57;;
25279;SDS011;13225;47.804;12.116;2023-02-19T10:22:48;1.13;;;0.90;;
25279;SDS011;13225;47.804;12.116;2023-02-19T10:25:23;1.13;;;0.80;;
25279;SDS011;13225;47.804;12.116;2023-02-19T10:27:48;0.50;;;0.50;;
25279;SDS011;13225;47.804;12.116;2023-02-19T10:30:19;0.73;;;0.70;;
25279;SDS011;13225;47.804;12.116;2023-02-19T10:32:58;1.85;;;0.90;;
25279;SDS011;13225;47.804;12.116;2023-02-19T10:35:27;0.93;;;0.80;;
25279;SDS011;13225;47.804;12.116;2023-02-19T10:37:53;0.80;;;0.80;;
25279;SDS011;13225;47.804;12.116;2023-02-19T10:40:21;1.00;;;0.85;;
25279;SDS011;13225;47.804;12.116;2023-02-19T10:42:51;0.90;;;0.90;;
25279;SDS011;13225;47.804;12.116;2023-02-19T10:45:39;1.42;;;1.20;;
25279;SDS011;13225;47.804;12.116;2023-02-19T10:48:58;1.88;;;0.65;;
25279;SDS011;13225;47.804;12.116;2023-02-19T10:51:04;0.77;;;0.77;;
25279;SDS011;13225;47.804;12.116;2023-02-19T10:53:51;0.70;;;0.70;;
25279;SDS011;13225;47.804;12.116;2023-02-19T10:56:39;0.77;;;0.60;;
25279;SDS011;13225;47.804;12.116;2023-02-19T10:59:25;6.07;;;2.33;;
25279;SDS011;13225;47.804;12.116;2023-02-19T11:04:40;1.00;;;0.85;;
25279;SDS011;13225;47.804;12.116;2023-02-19T11:07:09;1.10;;;1.00;;
25279;SDS011;13225;47.804;12.116;2023-02-19T11:09:42;0.82;;;0.65;;
25279;SDS011;13225;47.804;12.116;2023-02-19T11:12:10;1.23;;;0.90;;
25279;SDS011;13225;47.804;12.116;2023-02-19T11:14:40;0.90;;;0.90;;
25279;SDS011;13225;47.804;12.116;2023-02-19T11:17:15;1.85;;;0.90;;
25279;SDS011;13225;47.804;12.116;2023-02-19T11:19:52;0.75;;;0.75;;
25279;SDS011;13225;47.804;12.116;2023-02-19T11:25:13;2.25;;;0.68;;
25279;SDS011;13225;47.804;12.116;2023-02-19T11:30:42;3.42;;;0.70;;
25279;SDS011;13225;47.804;12.116;2023-02-19T11:35:44;2.63;;;0.90;;
25279;SDS011;13225;47.804;12.116;2023-02-19T11:38:11;2.78;;;0.68;;
25279;SDS011;13225;47.804;12.116;2023-02-19T11:40:54;1.63;;;0.85;;
25279;SDS011;13225;47.804;12.116;2023-02-19T11:48:57;2.05;;;0.98;;
25279;SDS011;13225;47.804;12.116;2023-02-19T11:54:01;1.83;;;0.93;;
25279;SDS011;13225;47.804;12.116;2023-02-19T11:56:35;2.42;;;0.82;;
25279;SDS011;13225;47.804;12.116;2023-02-19T11:59:03;1.52;;;0.88;;
25279;SDS011;13225;47.804;12.116;2023-02-19T12:05:15;2.20;;;0.85;;
25279;SDS011;13225;47.804;12.116;2023-02-19T12:27:04;0.93;;;0.82;;
25279;SDS011;13225;47.804;12.116;2023-02-19T12:51:09;0.75;;;0.70;;
25279;SDS011;13225;47.804;12.116;2023-02-19T12:56:18;0.90;;;0.90;;
25279;SDS011;13225;47.804;12.116;2023-02-19T12:58:53;0.60;;;0.40;;
25279;SDS011;13225;47.804;12.116;2023-02-19T13:01:32;0.80;;;0.80;;
25279;SDS011;13225;47.804;12.116;2023-02-19T13:12:18;0.93;;;0.75;;
25279;SDS011;13225;47.804;12.116;2023-02-19T13:14:50;0.68;;;0.60;;
25279;SDS011;13225;47.804;12.116;2023-02-19T13:17:43;0.63;;;0.63;;
25279;SDS011;13225;47.804;12.116;2023-02-19T13:38:03;0.70;;;0.70;;
25279;SDS011;13225;47.804;12.116;2023-02-19T13:40:35;1.30;;;0.75;;
25279;SDS011;13225;47.804;12.116;2023-02-19T13:43:04;0.80;;;0.80;;
25279;SDS011;13225;47.804;12.116;2023-02-19T14:04:20;0.73;;;0.70;;
25279;SDS011;13225;47.804;12.116;2023-02-19T14:07:37;0.95;;;0.90;;
25279;SDS011;13225;47.804;12.116;2023-02-19T14:25:17;1.13;;;1.00;;
25279;SDS011;13225;47.804;12.116;2023-02-19T14:28:01;3.30;;;1.20;;
25279;SDS011;13225;47.804;12.116;2023-02-19T14:30:31;2.25;;;1.38;;
25279;SDS011;13225;47.804;12.116;2023-02-19T14:32:59;1.63;;;0.90;;
25279;SDS011;13225;47.804;12.116;2023-02-19T14:38:45;0.85;;;0.77;;
25279;SDS011;13225;47.804;12.116;2023-02-19T14:41:14;1.00;;;0.90;;
25279;SDS011;13225;47.804;12.116;2023-02-19T14:43:42;1.38;;;0.80;;
25279;SDS011;13225;47.804;12.116;2023-02-19T14:49:03;0.80;;;0.80;;
25279;SDS011;13225;47.804;12.116;2023-02-19T14:51:38;0.90;;;0.80;;
25279;SDS011;13225;47.804;12.116;2023-02-19T14:54:09;2.22;;;1.30;;
25279;SDS011;13225;47.804;12.116;2023-02-19T14:56:53;1.00;;;0.88;;
25279;SDS011;13225;47.804;12.116;2023-02-19T15:02:00;1.67;;;0.90;;
25279;SDS011;13225;47.804;12.116;2023-02-19T15:04:34;0.70;;;0.70;;
25279;SDS011;13225;47.804;12.116;2023-02-19T15:07:02;1.13;;;1.02;;
25279;SDS011;13225;47.804;12.116;2023-02-19T15:09:32;1.52;;;1.27;;
25279;SDS011;13225;47.804;12.116;2023-02-19T15:12:03;1.75;;;1.65;;
25279;SDS011;13225;47.804;12.116;2023-02-19T15:14:29;1.17;;;1.08;;
25279;SDS011;13225;47.804;12.116;2023-02-19T15:16:58;1.35;;;0.95;;
25279;SDS011;13225;47.804;12.116;2023-02-19T15:19:27;1.73;;;1.63;;
25279;SDS011;13225;47.804;12.116;2023-02-19T15:21:55;1.00;;;1.00;;
25279;SDS011;13225;47.804;12.116;2023-02-19T15:24:20;3.58;;;1.33;;
25279;SDS011;13225;47.804;12.116;2023-02-19T15:26:47;2.17;;;1.13;;
25279;SDS011;13225;47.804;12.116;2023-02-19T15:29:19;0.73;;;0.73;;
25279;SDS011;13225;47.804;12.116;2023-02-19T15:31:47;1.75;;;0.98;;
25279;SDS011;13225;47.804;12.116;2023-02-19T15:34:16;1.45;;;0.60;;
25279;SDS011;13225;47.804;12.116;2023-02-19T15:36:44;1.10;;;1.00;;
25279;SDS011;13225;47.804;12.116;2023-02-19T15:39:12;1.10;;;1.00;;
25279;SDS011;13225;47.804;12.116;2023-02-19T15:41:43;1.50;;;1.17;;
25279;SDS011;13225;47.804;12.116;2023-02-19T15:47:32;1.48;;;1.15;;
25279;SDS011;13225;47.804;12.116;2023-02-19T15:50:31;1.50;;;1.10;;
25279;SDS011;13225;47.804;12.116;2023-02-19T15:53:01;1.10;;;0.90;;
25279;SDS011;13225;47.804;12.116;2023-02-19T15:56:04;2.08;;;1.20;;
25279;SDS011;13225;47.804;12.116;2023-02-19T15:58:40;1.92;;;1.30;;
25279;SDS011;13225;47.804;12.116;2023-02-19T16:01:19;2.80;;;1.45;;
25279;SDS011;13225;47.804;12.116;2023-02-19T16:03:51;2.33;;;1.20;;
25279;SDS011;13225;47.804;12.116;2023-02-19T16:06:20;1.20;;;1.10;;
25279;SDS011;13225;47.804;12.116;2023-02-19T16:13:48;3.83;;;1.80;;
25279;SDS011;13225;47.804;12.116;2023-02-19T16:16:28;1.85;;;1.50;;
25279;SDS011;13225;47.804;12.116;2023-02-19T16:19:00;3.00;;;1.92;;
25279;SDS011;13225;47.804;12.116;2023-02-19T16:21:26;7.47;;;2.55;;
25279;SDS011;13225;47.804;12.116;2023-02-19T16:23:55;3.88;;;1.90;;
25279;SDS011;13225;47.804;12.116;2023-02-19T16:26:40;2.97;;;1.80;;
25279;SDS011;13225;47.804;12.116;2023-02-19T16:32:03;1.75;;;1.58;;
25279;SDS011;13225;47.804;12.116;2023-02-19T16:34:44;2.65;;;1.70;;
25279;SDS011;13225;47.804;12.116;2023-02-19T16:42:31;3.72;;;2.05;;
25279;SDS011;13225;47.804;12.116;2023-02-19T16:44:57;2.60;;;1.90;;
25279;SDS011;13225;47.804;12.116;2023-02-19T16:47:24;3.00;;;1.63;;
25279;SDS011;13225;47.804;12.116;2023-02-19T16:49:52;2.00;;;1.80;;
25279;SDS011;13225;47.804;12.116;2023-02-19T16:52:19;3.40;;;1.90;;
25279;SDS011;13225;47.804;12.116;2023-02-19T16:54:46;3.15;;;2.08;;
25279;SDS011;13225;47.804;12.116;2023-02-19T16:57:13;2.50;;;1.90;;
25279;SDS011;13225;47.804;12.116;2023-02-19T16:59:39;3.30;;;1.80;;
25279;SDS011;13225;47.804;12.116;2023-02-19T17:02:05;3.25;;;2.00;;
25279;SDS011;13225;47.804;12.116;2023-02-19T17:04:33;3.00;;;1.95;;
25279;SDS011;13225;47.804;12.116;2023-02-19T17:06:59;1.65;;;1.30;;
25279;SDS011;13225;47.804;12.116;2023-02-19T17:09:25;1.70;;;1.60;;
25279;SDS011;13225;47.804;12.116;2023-02-19T17:11:51;1.83;;;1.40;;
25279;SDS011;13225;47.804;12.116;2023-02-19T17:14:17;1.80;;;1.42;;
25279;SDS011;13225;47.804;12.116;2023-02-19T17:16:42;2.13;;;1.60;;
25279;SDS011;13225;47.804;12.116;2023-02-19T17:19:08;2.03;;;1.13;;
25279;SDS011;13225;47.804;12.116;2023-02-19T17:21:37;1.92;;;1.35;;
25279;SDS011;13225;47.804;12.116;2023-02-19T17:24:02;4.00;;;1.80;;
25279;SDS011;13225;47.804;12.116;2023-02-19T17:26:29;2.03;;;1.45;;
25279;SDS011;13225;47.804;12.116;2023-02-19T17:28:59;2.72;;;1.65;;
25279;SDS011;13225;47.804;12.116;2023-02-19T17:31:27;4.25;;;1.90;;
25279;SDS011;13225;47.804;12.116;2023-02-19T17:33:53;1.83;;;1.40;;
25279;SDS011;13225;47.804;12.116;2023-02-19T17:36:21;2.45;;;1.50;;
25279;SDS011;13225;47.804;12.116;2023-02-19T17:38:50;2.13;;;1.50;;
25279;SDS011;13225;47.804;12.116;2023-02-19T17:41:16;1.83;;;1.45;;
25279;SDS011;13225;47.804;12.116;2023-02-19T17:43:42;1.25;;;1.15;;
25279;SDS011;13225;47.804;12.116;2023-02-19T17:46:12;2.10;;;1.50;;
25279;SDS011;13225;47.804;12.116;2023-02-19T17:48:42;2.38;;;1.30;;
25279;SDS011;13225;47.804;12.116;2023-02-19T17:51:08;2.05;;;1.50;;
25279;SDS011;13225;47.804;12.116;2023-02-19T17:53:34;1.15;;;1.08;;
25279;SDS011;13225;47.804;12.116;2023-02-19T17:55:59;1.20;;;1.10;;
25279;SDS011;13225;47.804;12.116;2023-02-19T17:58:25;3.30;;;1.30;;
25279;SDS011;13225;47.804;12.116;2023-02-19T18:00:51;1.30;;;1.15;;
25279;SDS011;13225;47.804;12.116;2023-02-19T18:03:16;1.55;;;1.17;;
25279;SDS011;13225;47.804;12.116;2023-02-19T18:05:42;1.60;;;1.00;;
25279;SDS011;13225;47.804;12.116;2023-02-19T18:08:08;2.40;;;1.40;;
25279;SDS011;13225;47.804;12.116;2023-02-19T18:10:33;1.92;;;1.48;;